createdAt,value
2019-04-14T00:02:38.285Z,46.16
2019-04-14T00:05:12.542Z,46.17
2019-04-14T00:07:42.844Z,46.26
2019-04-14T00:10:13.927Z,46.19
2019-04-14T00:12:44.860Z,46.18
2019-04-14T00:15:38.624Z,46.28
2019-04-14T00:18:23.017Z,46.14
2019-04-14T00:21:11.117Z,46.20
2019-04-14T00:23:59.322Z,46.24
2019-04-14T00:26:48.773Z,46.24
2019-04-14T00:29:37.173Z,46.20
2019-04-14T00:32:26.872Z,46.17
2019-04-14T00:35:25.576Z,46.17
2019-04-14T00:38:19.822Z,46.14
2019-04-14T00:41:40.293Z,46.19
2019-04-14T00:44:38.686Z,46.21
2019-04-14T00:47:31.168Z,46.11
2019-04-14T00:50:19.572Z,46.22
2019-04-14T00:53:07.766Z,46.18
2019-04-14T00:55:55.873Z,46.22
2019-04-14T00:58:43.675Z,46.24
2019-04-14T01:01:31.428Z,46.18
2019-04-14T01:04:19.309Z,46.19
2019-04-14T01:07:08.658Z,46.16
2019-04-14T01:09:57.543Z,46.22
2019-04-14T01:12:45.689Z,46.19
2019-04-14T01:15:15.999Z,46.24
2019-04-14T01:17:46.303Z,46.25
2019-04-14T01:20:16.970Z,46.26
2019-04-14T01:22:47.253Z,46.24
2019-04-14T01:25:17.594Z,46.24
2019-04-14T01:27:47.905Z,46.29
2019-04-14T01:30:18.137Z,46.37
2019-04-14T01:32:48.440Z,46.27
2019-04-14T01:35:20.313Z,46.21
2019-04-14T01:37:50.786Z,46.28
2019-04-14T01:40:21.176Z,46.21
2019-04-14T01:42:52.671Z,46.25
2019-04-14T01:45:23.242Z,46.22
2019-04-14T01:47:53.604Z,46.23
2019-04-14T01:50:32.683Z,46.23
2019-04-14T01:53:12.307Z,46.20
2019-04-14T01:56:05.667Z,46.18
2019-04-14T01:58:42.537Z,46.17
2019-04-14T02:01:30.770Z,46.15
2019-04-14T02:04:04.886Z,46.18
2019-04-14T02:06:37.672Z,46.17
2019-04-14T02:09:09.714Z,46.17
2019-04-14T02:11:40.007Z,46.15
2019-04-14T02:14:10.449Z,46.12
2019-04-14T02:16:49.415Z,46.14
2019-04-14T02:19:15.341Z,46.14
2019-04-14T02:21:45.789Z,46.14
2019-04-14T02:24:16.072Z,46.12
2019-04-14T02:26:46.359Z,46.15
2019-04-14T02:29:16.871Z,46.10
2019-04-14T02:32:17.571Z,46.15
2019-04-14T02:34:50.762Z,46.20
2019-04-14T02:39:56.044Z,46.23
2019-04-14T02:44:57.152Z,46.22
2019-04-14T02:47:45.229Z,46.20
2019-04-14T02:49:56.162Z,46.18
2019-04-14T02:52:35.397Z,46.20
2019-04-14T02:55:04.246Z,46.16
2019-04-14T02:57:38.313Z,46.21
2019-04-14T03:00:07.881Z,46.22
2019-04-14T03:02:38.939Z,46.23
2019-04-14T03:05:13.297Z,46.33
2019-04-14T03:07:46.786Z,46.23
2019-04-14T03:10:22.414Z,46.23
2019-04-14T03:12:46.541Z,46.28
2019-04-14T03:15:17.078Z,46.23
2019-04-14T03:18:35.603Z,46.33
2019-04-14T03:21:30.576Z,46.19
2019-04-14T03:24:27.312Z,45.99
2019-04-14T03:27:22.393Z,46.15
2019-04-14T03:30:26.184Z,46.11
2019-04-14T03:32:58.084Z,46.18
2019-04-14T03:37:48.587Z,46.20
2019-04-14T03:39:57.241Z,46.05
2019-04-14T03:43:05.904Z,46.02
2019-04-14T03:45:42.833Z,46.19
2019-04-14T03:50:50.204Z,46.15
2019-04-14T03:53:18.857Z,46.07
2019-04-14T03:56:00.183Z,46.20
2019-04-14T03:58:27.127Z,46.18
2019-04-14T04:00:57.668Z,46.08
2019-04-14T04:03:28.957Z,46.16
2019-04-14T04:06:00.824Z,46.16
2019-04-14T04:08:33.349Z,46.20
2019-04-14T04:11:04.035Z,46.22
2019-04-14T04:13:34.580Z,46.18
2019-04-14T04:16:18.046Z,46.20
2019-04-14T04:18:57.871Z,46.13
2019-04-14T04:21:44.463Z,46.20
2019-04-14T04:24:35.011Z,46.17
2019-04-14T04:27:14.135Z,46.13
2019-04-14T04:29:52.676Z,46.20
2019-04-14T04:32:34.767Z,46.18
2019-04-14T04:35:15.607Z,46.19
2019-04-14T04:38:16.684Z,46.19
2019-04-14T04:40:46.968Z,46.19
2019-04-14T04:43:17.249Z,46.22
2019-04-14T04:45:47.562Z,46.10
2019-04-14T04:48:17.832Z,46.16
2019-04-14T04:50:48.146Z,46.25
2019-04-14T04:53:18.446Z,46.24
2019-04-14T04:55:48.722Z,46.24
2019-04-14T04:58:19.500Z,46.17
2019-04-14T05:00:52.530Z,46.21
2019-04-14T05:03:23.233Z,46.17
2019-04-14T05:06:50.611Z,46.22
2019-04-14T05:09:38.959Z,46.18
2019-04-14T05:12:41.335Z,46.16
2019-04-14T05:15:33.494Z,46.13
2019-04-14T05:18:04.943Z,46.16
2019-04-14T05:20:37.787Z,46.22
2019-04-14T05:23:08.204Z,46.20
2019-04-14T05:25:38.619Z,45.91
2019-04-14T05:28:11.162Z,45.79
2019-04-14T05:30:41.631Z,45.61
2019-04-14T05:33:12.142Z,45.56
2019-04-14T05:35:42.477Z,45.48
2019-04-14T05:38:12.744Z,45.44
2019-04-14T05:40:44.980Z,45.29
2019-04-14T05:43:27.981Z,44.99
2019-04-14T05:45:50.037Z,44.95
2019-04-14T05:48:21.431Z,44.83
2019-04-14T05:50:51.709Z,45.17
2019-04-14T05:53:22.371Z,45.38
2019-04-14T05:55:52.666Z,44.00
2019-04-14T05:58:23.246Z,43.81
2019-04-14T06:00:53.608Z,43.97
2019-04-14T06:03:27.688Z,44.02
2019-04-14T06:05:58.300Z,44.03
2019-04-14T06:08:28.572Z,44.10
2019-04-14T06:10:58.798Z,44.13
2019-04-14T06:13:29.016Z,44.18
2019-04-14T06:15:59.573Z,44.20
2019-04-14T06:18:30.999Z,44.19
2019-04-14T06:21:01.233Z,44.27
2019-04-14T06:23:31.531Z,43.99
2019-04-14T06:26:01.848Z,44.49
2019-04-14T06:28:32.510Z,44.31
2019-04-14T06:31:18.998Z,43.97
2019-04-14T06:34:09.209Z,44.24
2019-04-14T06:37:10.593Z,43.92
2019-04-14T06:39:43.787Z,42.34
2019-04-14T06:42:14.028Z,38.45
2019-04-14T06:44:44.688Z,41.28
2019-04-14T06:47:14.929Z,41.78
2019-04-14T06:49:49.169Z,42.50
2019-04-14T06:52:17.418Z,42.72
2019-04-14T06:54:47.758Z,43.15
2019-04-14T06:57:18.001Z,43.28
2019-04-14T06:59:48.341Z,43.35
2019-04-14T07:02:18.593Z,43.54
2019-04-14T07:04:48.958Z,43.08
2019-04-14T07:07:19.302Z,38.95
2019-04-14T07:09:49.611Z,40.75
2019-04-14T07:12:19.887Z,41.15
2019-04-14T07:14:51.200Z,40.72
2019-04-14T07:17:21.515Z,41.37
2019-04-14T07:20:01.345Z,41.93
2019-04-14T07:22:24.137Z,39.89
2019-04-14T07:24:54.598Z,40.37
2019-04-14T07:27:24.925Z,40.91
2019-04-14T07:30:10.894Z,40.62
2019-04-14T07:32:56.278Z,39.26
2019-04-14T07:35:51.647Z,39.69
2019-04-14T07:38:30.619Z,40.58
2019-04-14T07:41:31.867Z,41.30
2019-04-14T07:44:09.457Z,38.93
2019-04-14T07:46:58.609Z,39.01
2019-04-14T07:49:56.797Z,40.30
2019-04-14T07:52:35.880Z,40.80
2019-04-14T07:55:25.117Z,41.03
2019-04-14T07:58:15.028Z,40.45
2019-04-14T08:01:01.019Z,39.05
2019-04-14T08:03:50.198Z,38.51
2019-04-14T08:06:20.476Z,39.32
2019-04-14T08:08:50.743Z,39.47
2019-04-14T08:11:21.017Z,39.69
2019-04-14T08:13:51.288Z,39.87
2019-04-14T08:16:21.553Z,39.48
2019-04-14T08:18:51.793Z,38.16
2019-04-14T08:21:22.048Z,39.39
2019-04-14T08:23:52.268Z,39.82
2019-04-14T08:26:22.588Z,39.57
2019-04-14T08:28:52.918Z,39.29
2019-04-14T08:31:23.402Z,39.21
2019-04-14T08:33:53.676Z,39.37
2019-04-14T08:36:24.418Z,39.36
2019-04-14T08:38:54.696Z,40.17
2019-04-14T08:41:25.849Z,39.58
2019-04-14T08:47:07.762Z,39.10
2019-04-14T08:50:01.131Z,39.78
2019-04-14T08:52:38.846Z,40.17
2019-04-14T08:55:26.697Z,40.33
2019-04-14T08:58:18.732Z,40.52
2019-04-14T09:01:00.706Z,40.67
2019-04-14T09:03:42.231Z,40.46
2019-04-14T09:06:20.019Z,40.05
2019-04-14T09:11:32.029Z,40.36
2019-04-14T09:14:02.379Z,40.39
2019-04-14T09:16:32.673Z,40.35
2019-04-14T09:19:07.908Z,40.40
2019-04-14T09:21:34.956Z,40.57
2019-04-14T09:24:05.249Z,40.30
2019-04-14T09:26:35.553Z,40.24
2019-04-14T09:29:05.846Z,40.52
2019-04-14T09:31:34.886Z,40.49
2019-04-14T09:34:03.556Z,40.31
2019-04-14T09:36:32.284Z,40.47
2019-04-14T09:39:02.738Z,40.45
2019-04-14T09:41:33.575Z,40.46
2019-04-14T09:44:03.893Z,40.52
2019-04-14T09:46:34.159Z,40.75
2019-04-14T09:49:04.476Z,40.98
2019-04-14T09:51:34.749Z,40.91
2019-04-14T09:54:05.323Z,41.36
2019-04-14T09:56:35.781Z,40.98
2019-04-14T09:59:05.857Z,41.50
2019-04-14T10:01:37.205Z,41.56
2019-04-14T10:04:07.470Z,41.86
2019-04-14T10:06:39.547Z,42.83
2019-04-14T10:09:11.364Z,43.11
2019-04-14T10:11:48.547Z,43.93
2019-04-14T10:14:13.845Z,43.50
2019-04-14T10:16:44.129Z,43.55
2019-04-14T10:19:14.551Z,43.19
2019-04-14T10:21:44.875Z,43.48
2019-04-14T10:24:15.156Z,43.39
2019-04-14T10:26:45.601Z,43.48
2019-04-14T10:29:16.889Z,43.29
2019-04-14T10:31:47.169Z,43.29
2019-04-14T10:34:17.467Z,43.28
2019-04-14T10:36:47.771Z,43.12
2019-04-14T10:39:18.131Z,43.17
2019-04-14T10:41:48.392Z,41.98
2019-04-14T10:44:18.767Z,42.24
2019-04-14T10:46:49.075Z,42.39
2019-04-14T10:49:19.418Z,42.50
2019-04-14T10:51:49.741Z,42.57
2019-04-14T10:54:20.012Z,42.52
2019-04-14T10:56:50.442Z,42.43
2019-04-14T10:59:20.726Z,42.38
2019-04-14T11:01:51.083Z,41.77
2019-04-14T11:04:21.430Z,41.66
2019-04-14T11:06:57.670Z,41.95
2019-04-14T11:09:27.937Z,41.55
2019-04-14T11:11:58.233Z,41.57
2019-04-14T11:14:28.984Z,41.47
2019-04-14T11:16:59.233Z,41.54
2019-04-14T11:19:29.793Z,41.50
2019-04-14T11:22:00.075Z,41.48
2019-04-14T11:24:32.659Z,41.42
2019-04-14T11:27:04.487Z,41.37
2019-04-14T11:29:34.773Z,40.96
2019-04-14T11:32:32.784Z,40.81
2019-04-14T11:35:20.641Z,40.66
2019-04-14T11:38:12.647Z,40.76
2019-04-14T11:40:54.300Z,40.97
2019-04-14T11:43:24.653Z,41.07
2019-04-14T11:45:58.821Z,41.14
2019-04-14T11:48:29.338Z,41.15
2019-04-14T11:50:59.840Z,41.22
2019-04-14T11:53:30.303Z,41.25
2019-04-14T11:56:00.776Z,41.29
2019-04-14T11:58:31.298Z,41.40
2019-04-14T12:01:22.075Z,41.38
2019-04-14T12:04:13.720Z,41.46
2019-04-14T12:07:03.048Z,41.48
2019-04-14T12:09:46.164Z,41.59
2019-04-14T12:12:17.039Z,41.81
2019-04-14T12:14:48.817Z,41.82
2019-04-14T12:17:18.703Z,41.89
2019-04-14T12:19:49.083Z,41.95
2019-04-14T12:22:20.748Z,42.07
2019-04-14T12:24:51.502Z,42.14
2019-04-14T12:27:23.098Z,42.24
2019-04-14T12:29:54.468Z,42.34
2019-04-14T12:32:26.005Z,42.40
2019-04-14T12:34:56.820Z,42.42
2019-04-14T12:37:27.506Z,42.54
2019-04-14T12:39:57.692Z,42.60
2019-04-14T12:42:56.670Z,42.66
2019-04-14T12:45:57.880Z,42.80
2019-04-14T12:49:07.882Z,42.81
2019-04-14T12:52:00.500Z,42.81
2019-04-14T12:54:31.352Z,42.94
2019-04-14T12:57:02.138Z,42.61
2019-04-14T12:59:34.349Z,42.65
2019-04-14T13:02:17.649Z,42.58
2019-04-14T13:04:48.113Z,42.50
2019-04-14T13:07:19.387Z,41.84
2019-04-14T13:09:51.064Z,41.73
2019-04-14T13:12:21.591Z,41.86
2019-04-14T13:14:52.048Z,42.10
2019-04-14T13:17:22.933Z,42.20
2019-04-14T13:19:54.599Z,42.32
2019-04-14T13:22:33.776Z,42.31
2019-04-14T13:24:57.314Z,42.34
2019-04-14T13:27:28.277Z,42.40
2019-04-14T13:29:59.314Z,42.51
2019-04-14T13:32:35.907Z,41.13
2019-04-14T13:35:03.847Z,41.94
2019-04-14T13:37:34.138Z,41.10
2019-04-14T13:40:09.589Z,41.30
2019-04-14T13:42:41.395Z,41.88
2019-04-14T13:45:11.876Z,41.95
2019-04-14T13:47:42.193Z,42.00
2019-04-14T13:50:12.632Z,42.02
2019-04-14T13:52:46.925Z,42.00
2019-04-14T13:55:15.019Z,41.94
2019-04-14T13:57:45.334Z,42.01
2019-04-14T14:00:18.756Z,42.04
2019-04-14T14:02:49.090Z,42.01
2019-04-14T14:05:19.468Z,41.99
2019-04-14T14:07:49.786Z,42.07
2019-04-14T14:10:19.968Z,42.05
2019-04-14T14:12:58.284Z,42.01
2019-04-14T14:15:57.072Z,42.01
2019-04-14T14:18:34.309Z,42.07
2019-04-14T14:21:32.313Z,42.11
2019-04-14T14:24:30.630Z,42.11
2019-04-14T14:27:01.003Z,42.12
2019-04-14T14:29:31.523Z,42.15
2019-04-14T14:32:02.994Z,42.18
2019-04-14T14:34:33.316Z,42.21
2019-04-14T14:37:03.695Z,42.24
2019-04-14T14:39:34.375Z,42.21
2019-04-14T14:42:04.630Z,42.19
2019-04-14T14:44:42.901Z,42.23
2019-04-14T14:47:19.026Z,42.24
2019-04-14T14:50:20.602Z,42.21
2019-04-14T14:52:50.887Z,42.27
2019-04-14T14:55:21.268Z,42.19
2019-04-14T14:57:51.541Z,42.20
2019-04-14T15:00:28.975Z,42.22
2019-04-14T15:02:59.252Z,42.23
2019-04-14T15:05:29.538Z,42.28
2019-04-14T15:07:59.846Z,42.28
2019-04-14T15:10:30.092Z,42.19
2019-04-14T15:13:00.438Z,42.25
2019-04-14T15:15:31.388Z,42.28
2019-04-14T15:18:01.796Z,42.31
2019-04-14T15:20:32.104Z,42.32
2019-04-14T15:23:07.581Z,42.30
2019-04-14T15:25:37.859Z,42.29
2019-04-14T15:28:11.441Z,42.31
2019-04-14T15:30:41.722Z,42.35
2019-04-14T15:33:12.006Z,42.23
2019-04-14T15:35:42.284Z,42.22
2019-04-14T15:38:14.157Z,42.30
2019-04-14T15:40:44.465Z,42.30
2019-04-14T15:43:14.669Z,42.33
2019-04-14T15:45:44.993Z,42.34
2019-04-14T15:48:15.362Z,42.34
2019-04-14T15:50:46.071Z,42.35
2019-04-14T15:53:16.353Z,42.35
2019-04-14T15:55:46.730Z,42.32
2019-04-14T15:58:54.283Z,42.34
2019-04-14T16:01:42.389Z,42.31
2019-04-14T16:04:40.426Z,42.38
2019-04-14T16:07:24.262Z,42.38
2019-04-14T16:10:20.066Z,42.31
2019-04-14T16:12:58.855Z,42.38
2019-04-14T16:15:44.367Z,42.36
2019-04-14T16:18:36.986Z,42.27
2019-04-14T16:21:07.532Z,42.29
2019-04-14T16:23:49.735Z,42.25
2019-04-14T16:26:38.712Z,42.32
2019-04-14T16:29:15.164Z,42.27
2019-04-14T16:32:19.455Z,42.19
2019-04-14T16:35:01.686Z,42.18
2019-04-14T16:37:33.439Z,42.20
2019-04-14T16:40:03.839Z,42.21
2019-04-14T16:42:36.212Z,42.22
2019-04-14T16:45:07.243Z,42.22
2019-04-14T16:47:39.758Z,42.19
2019-04-14T16:50:10.677Z,42.20
2019-04-14T16:53:02.083Z,42.22
2019-04-14T16:55:54.891Z,42.22
2019-04-14T16:58:48.388Z,42.28
2019-04-14T17:01:31.353Z,42.30
2019-04-14T17:04:04.413Z,42.27
2019-04-14T17:06:36.124Z,42.27
2019-04-14T17:09:08.461Z,42.25
2019-04-14T17:11:39.384Z,42.25
2019-04-14T17:14:17.785Z,42.22
2019-04-14T17:17:22.229Z,42.34
2019-04-14T17:20:04.506Z,42.32
2019-04-14T17:23:10.542Z,42.37
2019-04-14T17:25:57.584Z,42.26
2019-04-14T17:28:45.730Z,42.30
2019-04-14T17:31:21.459Z,42.19
2019-04-14T17:34:01.944Z,42.16
2019-04-14T17:36:43.124Z,42.16
2019-04-14T17:39:32.095Z,42.26
2019-04-14T17:42:08.828Z,42.21
2019-04-14T17:44:51.067Z,42.22
2019-04-14T17:50:44.498Z,42.19
2019-04-14T17:53:37.637Z,42.27
2019-04-14T17:56:43.423Z,42.23
2019-04-14T17:59:18.705Z,42.26
2019-04-14T18:02:01.874Z,42.35
2019-04-14T18:04:58.965Z,42.39
2019-04-14T18:07:41.981Z,42.27
2019-04-14T18:10:32.925Z,42.07
2019-04-14T18:13:14.533Z,42.29
2019-04-14T18:15:57.986Z,42.30
2019-04-14T18:18:39.416Z,42.20
2019-04-14T18:21:11.689Z,42.28
2019-04-14T18:23:43.598Z,42.28
2019-04-14T18:26:14.554Z,42.27
2019-04-14T18:29:13.715Z,42.23
2019-04-14T18:32:10.247Z,42.34
2019-04-14T18:35:05.228Z,42.38
2019-04-14T18:37:52.867Z,42.28
2019-04-14T18:40:27.959Z,42.38
2019-04-14T18:43:26.691Z,42.30
2019-04-14T18:46:18.989Z,41.96
2019-04-14T18:49:08.531Z,41.89
2019-04-14T18:51:46.741Z,42.02
2019-04-14T18:54:39.581Z,42.03
2019-04-14T18:57:21.521Z,42.22
2019-04-14T19:00:10.978Z,42.18
2019-04-14T19:02:42.329Z,42.23
2019-04-14T19:05:12.828Z,42.12
2019-04-14T19:07:44.893Z,42.09
2019-04-14T19:10:15.710Z,41.70
2019-04-14T19:12:54.559Z,41.11
2019-04-14T19:15:56.022Z,41.08
2019-04-14T19:18:48.504Z,40.93
2019-04-14T19:21:21.437Z,41.04
2019-04-14T19:23:52.009Z,40.95
2019-04-14T19:26:23.464Z,40.98
2019-04-14T19:28:53.798Z,41.07
2019-04-14T19:31:24.049Z,41.68
2019-04-14T19:33:54.682Z,41.93
2019-04-14T19:36:25.277Z,41.96
2019-04-14T19:38:55.884Z,42.03
2019-04-14T19:41:26.251Z,42.05
2019-04-14T19:43:58.129Z,42.09
2019-04-14T19:46:28.619Z,42.16
2019-04-14T19:48:59.132Z,42.25
2019-04-14T19:51:29.525Z,42.27
2019-04-14T19:53:59.827Z,42.19
2019-04-14T19:56:30.121Z,42.24
2019-04-14T19:59:00.424Z,42.19
2019-04-14T20:01:30.714Z,42.23
2019-04-14T20:04:01.217Z,42.31
2019-04-14T20:06:34.148Z,42.41
2019-04-14T20:09:12.105Z,42.25
2019-04-14T20:11:42.411Z,42.63
2019-04-14T20:14:12.880Z,42.91
2019-04-14T20:16:58.460Z,42.76
2019-04-14T20:19:58.923Z,43.34
2019-04-14T20:22:58.774Z,43.62
2019-04-14T20:25:57.236Z,44.01
2019-04-14T20:28:37.940Z,44.83
2019-04-14T20:31:45.599Z,45.34
2019-04-14T20:34:15.909Z,45.26
2019-04-14T20:36:46.194Z,45.49
2019-04-14T20:39:17.137Z,45.32
2019-04-14T20:41:47.679Z,45.63
2019-04-14T20:44:18.196Z,45.49
2019-04-14T20:46:48.527Z,45.69
2019-04-14T20:49:18.808Z,45.87
2019-04-14T20:51:49.134Z,45.92
2019-04-14T20:54:19.417Z,45.96
2019-04-14T20:56:49.810Z,45.81
2019-04-14T20:59:20.108Z,45.97
2019-04-14T21:02:08.220Z,46.00
2019-04-14T21:04:50.435Z,46.02
2019-04-14T21:07:38.388Z,45.60
2019-04-14T21:10:17.860Z,45.88
2019-04-14T21:13:07.297Z,45.77
2019-04-14T21:15:45.379Z,46.02
2019-04-14T21:18:33.189Z,46.09
2019-04-14T21:21:25.226Z,45.96
2019-04-14T21:24:07.242Z,46.11
2019-04-14T21:26:51.728Z,45.99
2019-04-14T21:29:39.520Z,45.92
2019-04-14T21:32:25.014Z,46.06
2019-04-14T21:35:17.586Z,46.04
2019-04-14T21:37:57.749Z,45.92
2019-04-14T21:40:37.620Z,46.08
2019-04-14T21:43:07.983Z,46.00
2019-04-14T21:45:38.328Z,46.08
2019-04-14T21:48:08.683Z,46.05
2019-04-14T21:50:39.976Z,45.91
2019-04-14T21:53:10.301Z,46.04
2019-04-14T21:55:42.131Z,46.04
2019-04-14T21:58:37.307Z,45.92
2019-04-14T22:01:51.254Z,45.92
2019-04-14T22:04:45.572Z,45.83
2019-04-14T22:07:38.575Z,45.97
2019-04-14T22:10:23.464Z,46.01
2019-04-14T22:12:57.406Z,45.97
2019-04-14T22:15:27.984Z,45.92
2019-04-14T22:17:58.835Z,45.92
2019-04-14T22:20:29.208Z,45.96
2019-04-14T22:23:01.028Z,45.93
2019-04-14T22:25:31.649Z,45.85
2019-04-14T22:28:02.218Z,45.90
2019-04-14T22:30:32.475Z,45.99
2019-04-14T22:33:02.786Z,45.86
2019-04-14T22:35:33.335Z,45.95
2019-04-14T22:38:03.668Z,45.92
2019-04-14T22:40:33.943Z,45.96
2019-04-14T22:43:04.382Z,45.80
2019-04-14T22:45:36.048Z,45.85
2019-04-14T22:48:06.489Z,45.94
2019-04-14T22:50:38.099Z,45.84
2019-04-14T22:53:08.568Z,45.88
2019-04-14T22:55:39.061Z,45.68
2019-04-14T22:58:09.846Z,45.90
2019-04-14T23:01:04.559Z,45.93
2019-04-14T23:03:52.881Z,45.86
2019-04-14T23:06:54.421Z,45.88
2019-04-14T23:09:49.416Z,45.64
2019-04-14T23:12:27.412Z,45.68
2019-04-14T23:15:32.030Z,45.93
2019-04-14T23:18:30.628Z,45.96
2019-04-14T23:21:32.223Z,45.96
2019-04-14T23:24:27.676Z,45.87
2019-04-14T23:26:58.345Z,45.86
2019-04-14T23:29:28.879Z,45.60
2019-04-14T23:31:59.404Z,45.74
2019-04-14T23:34:30.263Z,45.80
2019-04-14T23:37:00.706Z,45.81
2019-04-14T23:39:32.547Z,45.91
2019-04-14T23:42:03.030Z,45.72
2019-04-14T23:44:34.565Z,45.80
2019-04-14T23:47:05.025Z,45.67
2019-04-14T23:49:35.564Z,45.59
2019-04-14T23:52:06.043Z,45.48
2019-04-14T23:54:36.627Z,45.75
2019-04-14T23:57:07.218Z,45.70
2019-04-14T23:59:37.947Z,45.84
